Bjorn Finnbogason

Olheiro - Fjolnir
13 Jan 2028
Quinta-feira
Processo

Personalidade

Adaptabilidade (12) Ambição (13) Controvérsia (3) Lealdade (9) Pressão (13) Profissionalismo (13) Espírito Esportivo (15) Temperamento (12)

Perfil

Estilo de Treinamento Democrático
Licença Nacional C
Determinação 12
Gestão de Pessoas 10
Motivação 10
Disciplina 12
Satisfação no Trabalho
100%
Fadiga
0%
Função Olheiro
Salário 30.5K p/s
Contrato 30.06.2029

Desempenho

Comportamento Bom
Eficácia do Treinamento
36%
Desenvolvimento do Jogador
40%
Prevenção de Lesões
20%
Implementação Tática
40%

Eventos Recentes

Participou de uma reunião de recrutamento 7d atrás
Recomendou um alvo de transferência 7d atrás
Participou de uma reunião de recrutamento 14d atrás
Recomendou um alvo de transferência 14d atrás
Participou de uma reunião de recrutamento 21d atrás
Recomendou um alvo de transferência 21d atrás
Participou de uma reunião de recrutamento 28d atrás
Recomendou um alvo de transferência 28d atrás

Monitorando agora

110
Jogador Clube Status Habilidade Confiança Observado Última observação Último voto
Martín Álvarez Tristán Suárez Ativo 109 / 94 40% 2 06.12.2027 -
Juan Mendoza Güemes Ativo 113 / 116 40% 1 06.12.2027 -
Joseph Atule Barau Ativo 87 / 109 40% 3 30.11.2027 -
Enzo González Defensores Ativo 99 / 108 40% 1 30.11.2027 -
Kleyder Barreto Estudiantes de Caracas Ativo 106 / 78 40% 2 29.11.2027 -
Marco Miori Alvarado Ativo 112 / 105 40% 1 29.11.2027 -
Tiziano Dornell Almagro Ativo 120 / 104 40% 1 29.11.2027 -
Elmer Arunta Bendel Insurance Ativo 97 / 101 40% 1 28.11.2027 -
Santiago Sala Güemes Ativo 116 / 98 40% 1 28.11.2027 -
Alejandro Quintana Atlanta Ativo 104 / 101 40% 5 26.11.2027 -
Agustín Dávila Plaza Colonia Ativo 99 / 91 40% 1 26.11.2027 -
Franco Fagúndez Estudiantes Ativo 119 / 113 40% 3 25.11.2027 -
Tomás Bolzicco Chaco For Ever Ativo 112 / 95 40% 1 25.11.2027 -
Alejandro Aquino Zulia Ativo 104 / 80 40% 1 25.11.2027 -
Fabricio Rojas Gimnasia y Tiro Ativo 116 / 96 40% 3 24.11.2027 -
Facundo Castro Nueva Chicago Ativo 125 / 108 40% 1 24.11.2027 -
Lautaro Gordillo Colegiales Ativo 115 / 106 40% 3 23.11.2027 -
Favio Cabral Mitre Ativo 116 / 118 40% 4 23.11.2027 -
Facundo Castelli Estudiantes Ativo 122 / 132 40% 2 23.11.2027 -
Nicolás Sosa Racing Ativo 113 / 120 40% 1 22.11.2027 -
Noah Lundström Gefle Ativo 100 / 81 40% 1 22.11.2027 -
Ángel González Ferro Carril Oeste Ativo 106 / 107 40% 4 20.11.2027 -
Chimobi Igwilo Rangers International Ativo 96 / 105 40% 3 20.11.2027 -
Chidi Akuneto Bendel Insurance Ativo 100 / 101 40% 1 20.11.2027 -
Yegor Kortsov Dinamo Brest Ativo 108 / 104 40% 2 19.11.2027 -
Santiago Herrera Trujillanos Ativo 80 / 106 40% 1 19.11.2027 -
Renato Alexandrino Oriental Ativo 98 / 110 40% 1 19.11.2027 -
Chinedu Onyinjekwu Bayelsa United Ativo 94 / 95 40% 1 18.11.2027 -
Miguel Celis Estudiantes de Merida Ativo 88 / 111 40% 1 18.11.2027 -
Junior Paredes Trujillanos Ativo 103 / 99 40% 1 14.11.2027 -
Mauricio Asenjo Los Andes Ativo 117 / 98 40% 4 13.11.2027 -
Oscar Belinetz Agropecuario Argentino Ativo 99 / 105 40% 1 13.11.2027 -
Juan Rocca Gimnasia y Tiro Ativo 123 / 123 40% 3 11.11.2027 -
Juan David Rueda Alianza Petrolera Ativo 108 / 119 40% 1 07.11.2027 -
Abdulmajid Aminu Barau Ativo 78 / 90 40% 2 05.11.2027 -
Oscar Ferraresi Llaneros Ativo 99 / 117 40% 1 04.11.2027 -
Santiago Apa All Boys Ativo 117 / 122 40% 1 04.11.2027 -
Sunday Megwo Abia Warriors Ativo 95 / 115 40% 3 29.10.2027 -
Matías Samaniego Talleres Ativo 115 / 99 40% 1 28.10.2027 -
Gonzalo Flores Almirante Brown Ativo 110 / 127 40% 1 25.10.2027 -
Carlos Gugenheim Almirante Brown Ativo 121 / 110 40% 2 19.10.2027 -
Thiago Calone All Boys Ativo 125 / 122 40% 2 18.10.2027 -
Jonatan Torres Cerro Porteno Ativo 133 / 134 40% 1 17.10.2027 -
Augusto Berrondo Tristán Suárez Ativo 114 / 122 40% 1 11.10.2027 -
Octavio Bianchi Gimnasia y Esgrima Ativo 95 / 100 40% 1 10.10.2027 -
Bjarki Steinsen Arnarsson Fylkir Negociando 67 / 85 62% 1 16.08.2027 Aprovar
Mattia Finotto Carrarese Ativo 111 / 121 40% 3 15.07.2027 -
Lorenzo Di Stefano Torres Ativo 109 / 99 40% 1 15.07.2027 -
Ronan Hale Gillingham Ativo 113 / 111 40% 1 14.07.2027 -
Mason Bennett Harrogate Town Ativo 91 / 101 40% 1 14.07.2027 -
Jalen Blesa Rio Ave Ativo 109 / 109 40% 4 13.07.2027 -
Léo Abreu Picerno Ativo 108 / 97 40% 2 12.07.2027 -
Xiscu Martínez Cavese Ativo 98 / 99 40% 1 12.07.2027 -
Job Ochieng Real Sociedad Ativo 114 / 101 40% 1 11.07.2027 -
Marco Tumminello Benevento Ativo 130 / 109 40% 4 10.07.2027 -
Eric Lanini Novara Ativo 115 / 109 40% 4 10.07.2027 -
Kamran Aliev SKA Khabarovsk Ativo 114 / 94 40% 1 08.07.2027 -
Simone Verdi Benevento Ativo 119 / 128 40% 1 08.07.2027 Mais informações
Jacopo Manconi Casertana Ativo 116 / 110 40% 4 02.07.2027 -
Will Davies Fleetwood Town Ativo 84 / 79 40% 1 02.07.2027 -
Kane Drummond Oldham Athletic Ativo 83 / 85 40% 2 01.07.2027 -
Lamine Diakité Djoliba Ativo 115 / 99 40% 3 30.06.2027 -
Calum Kavanagh Oldham Athletic Ativo 97 / 113 40% 1 30.06.2027 -
Manuel Fischnaller Ravenna Ativo 125 / 111 40% 2 29.06.2027 -
Michael Cheek Bromley Ativo 96 / 94 40% 2 29.06.2027 -
Edarlyn Reyes Arsenal Tula Ativo 121 / 125 40% 4 22.06.2027 -
Michele Emmausso Cosenza Ativo 118 / 108 40% 2 22.06.2027 -
Camillo Tavernelli Arezzo Ativo 130 / 115 40% 5 21.06.2027 -
Danny Butterworth Bromley Ativo 89 / 85 40% 1 21.06.2027 -
Gianluca Contini Siracusa Ativo 109 / 90 40% 2 20.06.2027 -
Seb Palmer-Houlden Gillingham Ativo 83 / 108 40% 1 20.06.2027 -
Miloš Bočić Altamura Ativo 93 / 97 40% 4 19.06.2027 -
Giacomo Zecca Torres Ativo 102 / 100 40% 2 17.06.2027 -
Giuseppe Simone Altamura Ativo 87 / 106 40% 1 16.06.2027 -
Manuel Pucciarelli Vis Pesaro Ativo 106 / 109 40% 2 15.06.2027 -
Francesco Petito Dolomiti Bellunesi Ativo 102 / 85 40% 1 15.06.2027 -
German Onugkha Rodina Ativo 126 / 125 40% 4 14.06.2027 -
Lorenzo Insigne Sampdoria Ativo 130 / 117 40% 4 14.06.2027 -
Nicola Dalmonte Trento Ativo 99 / 115 40% 1 13.06.2027 -
Grégoire Defrel Cittadella Ativo 120 / 107 40% 1 11.06.2027 -
Kenan Dervišagić Floriana Ativo 99 / 114 40% 2 08.06.2027 -
Vitinha Genoa Ativo 142 / 146 40% 1 08.06.2027 -
Thomas Alberti Cavese Ativo 95 / 108 40% 1 07.06.2027 -
Christian Tommasini Foggia Ativo 90 / 98 40% 1 06.06.2027 -
Pietro Cianci Arezzo Ativo 99 / 93 40% 1 05.06.2027 -
Dilan Ortíz Ufa Ativo 94 / 97 40% 1 30.05.2027 -
Davis Mensah Cittadella Ativo 115 / 109 40% 2 24.05.2027 -
Luis Solignac Trapani Ativo 114 / 86 40% 1 24.05.2027 -
Javi Zarzo Gubbio Ativo 111 / 112 40% 2 23.05.2027 -
Gianluca D'Auria Potenza Ativo 106 / 109 40% 1 23.05.2027 -
Ekain Orobengoa Real Sociedad Ativo 116 / 94 40% 2 18.05.2027 -
Manuele Malotti Livorno Ativo 89 / 89 40% 1 18.05.2027 -
Malick Touré Onze Createurs Ativo 87 / 79 40% 3 17.05.2027 -
Alexandr Saplinov Volga Ativo 113 / 92 40% 1 17.05.2027 -
Ichem Ferrah Pisa Ativo 119 / 101 40% 1 15.05.2027 -
Emanuele Schimmenti Potenza Ativo 102 / 117 40% 2 11.05.2027 -
Borna Knezović Casarano Ativo 98 / 120 40% 1 11.05.2027 -
Mohamed Mallahi Pro Vercelli Ativo 95 / 106 40% 2 07.05.2027 -
Amur Kalmykov Spartak Kostroma Ativo 123 / 122 40% 1 06.05.2027 -
Silvio Merkaj Vicenza Ativo 111 / 105 40% 2 03.05.2027 -
Andrea Mattioli Arzignano Ativo 117 / 86 40% 2 23.04.2027 -
Francesco Nicastro Vis Pesaro Ativo 93 / 102 40% 1 19.04.2027 -
Sulayman Jallow Vis Pesaro Ativo 89 / 90 40% 1 16.04.2027 -
Jacobo Alcalde SKA Khabarovsk Ativo 92 / 87 40% 1 14.04.2027 -
Jonah James New Edubiase United Ativo 98 / 84 40% 1 12.04.2027 -
Antonio Cioffi Latina Ativo 84 / 83 40% 1 10.04.2027 -
Cheickna Samaké Djoliba Ativo 110 / 90 40% 1 09.04.2027 -
Thalys Almería Ativo 135 / 111 40% 2 08.04.2027 -
Sindre Walle Egeli Nottingham Forest Ativo 133 / 132 40% 1 08.04.2027 -
Jacopo Desogus AlbinoLeffe Ativo 107 / 89 40% 1 31.03.2027 -